Aérodrome :
LOGIN :

S'inscrire | Disclaimer

   EN    FR    IT 

 










Légende :    VFR   VFR Marginal   IFR   IFR Intensif   IFR Très Intensif
Visi : 
Plafond : 
>= 8 km
>= 3000ft
5 à 8 km
1000 à 3000 ft
1500m à 5 km
500 à 1000 ft
800 à 1500m
200 à 500 ft
< 800m
< 200 ft
Symboles :   Orages  Brouillard  Fortes neiges  Fortes précipitations  Vent > 20 kt
SIGMETs :   Divers  Orages  Givrage  Turbulence  Onde Orograph.  Cendres Volcan.







- Altitude de l'aérodrome : 392 ft
- Code IATA : CDG
- Voir les cartes d'approche


LFPG - Paris-Aeroport Charles De Gaulle

DERNIER METAR :
  • 192000Z 18011KT 160V220 CAVOK 17/13 Q1007

METARs EXPIRÉS :
  • 191930Z 17008G23KT 9999 FEW036 SCT050 17/13 Q1007
  • 191900Z 17007KT 9999 BKN036 SCT043 18/13 Q1008
  • 191830Z 19009KT 120V210 9999 SCT036 SCT046 BKN063 18/12 Q1008
  • 191800Z 20007KT 9999 FEW039 SCT096 19/12 Q1008
  • 191730Z 20011KT 9999 FEW039 SCT046 19/12 Q1008

TAF TAF LFPG
Valide du 19 à 18h jusqu'au 21 à 00h UTC


191700Z 1918/2024 20010KT 9999 SCT040
TEMPO 1923/2004 20015G25KT
PROB40
TEMPO 2001/2003 23015G30KT 4000 RA BKN013 BKN030
TEMPO 2012/2015 23015G25KT TX18/1918Z TN13/2006Z
ATIS : +33 1 48 62 10 92
Pas de NOTAMs connus pour ce terrain.
1 SIGMET publié pour la FIR Paris (LFFF) :
 
Turbulence forte
LFFF SIGMET 1 VALID 191900/192300 LFPW
LFFF PARIS FIR/UIR SEV TURB FCST W OF LINE N4815 W00015 - N5015 E00030 SFC/FL060 MOV NE 30KT NC=



MET'MAP, la Météo Aéronautique d'un coup d'oeil ! - Copyright ORBIFLY Décembre 2007 - Disclaimer

ORBIFLY MET'MAP TEAM :

Programmation & Développement : Alexandra Zaïnal
Conception & Développement : Baudouin d'Aumeries
Co-Programmation & Développement : Marc-Olivier Méhu
Soutien technique & logistique : Manuel Goepfert

Contact : metmap@orbifly.com




SOURCES & CREDITS :

   NOAA